Terminal Aerodrome Forecast
Issued by NWS

Home | Current Version | Previous Version | Text Only | Print | Product List | Glossary On
Versions: 1 2 3 4 5 6 7 8 9 10 11 12 13 14 15 16
174
FTUS43 KTOP 290102 AAA
TAFFOE
TAF AMD
KFOE 290102Z 2901/2924 36012KT P6SM OVC005
     FM290800 02014G20KT P6SM VCSH OVC005
     FM291100 03016G25KT 3SM RA BR OVC006=

USA.gov is the U.S. government's official web portal to all federal, state and local government web resources and services.